createdAt,value
2022-12-18T00:01:36.066Z,35.83
2022-12-18T00:04:08.998Z,36.90
2022-12-18T00:06:36.568Z,35.40
2022-12-18T00:09:04.474Z,33.80
2022-12-18T00:11:32.082Z,33.87
2022-12-18T00:14:00.507Z,33.57
2022-12-18T00:16:29.035Z,36.67
2022-12-18T00:19:00.211Z,35.17
2022-12-18T00:21:28.402Z,34.63
2022-12-18T00:23:55.531Z,34.90
2022-12-18T00:26:25.276Z,35.23
2022-12-18T00:28:52.734Z,33.57
2022-12-18T00:31:22.824Z,38.27
2022-12-18T00:33:50.058Z,35.17
2022-12-18T00:36:24.855Z,35.83
2022-12-18T00:38:51.879Z,37.60
2022-12-18T00:41:39.665Z,35.87
2022-12-18T00:44:08.180Z,35.97
2022-12-18T00:46:34.881Z,35.83
2022-12-18T00:49:02.025Z,37.87
2022-12-18T00:51:28.821Z,35.03
2022-12-18T00:53:55.624Z,35.80
2022-12-18T00:56:25.393Z,35.83
2022-12-18T00:58:52.161Z,34.20
2022-12-18T01:01:19.480Z,34.60
2022-12-18T01:03:47.587Z,36.77
2022-12-18T01:06:15.847Z,34.07
2022-12-18T01:08:42.749Z,34.17
2022-12-18T01:11:15.271Z,34.77
2022-12-18T01:13:42.574Z,32.53
2022-12-18T01:16:10.066Z,35.40
2022-12-18T01:18:36.837Z,34.23
2022-12-18T01:21:15.108Z,34.47
2022-12-18T01:23:42.085Z,34.00
2022-12-18T01:26:14.917Z,33.67
2022-12-18T01:28:42.192Z,32.87
2022-12-18T01:31:33.083Z,34.30
2022-12-18T01:34:02.763Z,33.47
2022-12-18T01:36:37.782Z,32.23
2022-12-18T01:39:07.763Z,31.33
2022-12-18T01:41:54.253Z,32.77
2022-12-18T01:44:55.753Z,32.20
2022-12-18T01:47:31.658Z,31.37
2022-12-18T01:50:01.341Z,32.27
2022-12-18T01:52:31.487Z,31.97
2022-12-18T01:54:59.574Z,32.50
2022-12-18T01:57:27.149Z,32.70
2022-12-18T01:59:56.888Z,30.50
2022-12-18T02:02:23.910Z,30.47
2022-12-18T02:04:50.629Z,32.47
2022-12-18T02:07:32.405Z,32.37
2022-12-18T02:10:22.499Z,31.63
2022-12-18T02:13:03.900Z,31.03
2022-12-18T02:15:44.224Z,32.60
2022-12-18T02:18:37.605Z,34.13
2022-12-18T02:21:33.523Z,32.77
2022-12-18T02:24:36.213Z,30.10
2022-12-18T02:27:07.588Z,32.80
2022-12-18T02:29:36.931Z,32.63
2022-12-18T02:32:07.078Z,32.20
2022-12-18T02:34:38.527Z,31.57
2022-12-18T02:37:10.088Z,30.27
2022-12-18T02:39:39.596Z,33.07
2022-12-18T02:42:09.073Z,33.13
2022-12-18T02:44:43.594Z,30.47
2022-12-18T02:47:15.587Z,31.53
2022-12-18T02:50:00.362Z,30.27
2022-12-18T02:52:39.901Z,31.10
2022-12-18T02:55:22.584Z,33.17
2022-12-18T02:58:03.291Z,31.03
2022-12-18T03:00:44.148Z,32.43
2022-12-18T03:03:17.554Z,31.77
2022-12-18T03:05:47.270Z,31.57
2022-12-18T03:08:22.580Z,31.73
2022-12-18T03:11:02.450Z,31.00
2022-12-18T03:13:41.532Z,31.83
2022-12-18T03:16:12.434Z,31.53
2022-12-18T03:18:41.406Z,32.53
2022-12-18T03:21:10.169Z,32.63
2022-12-18T03:23:45.683Z,29.13
2022-12-18T03:26:16.455Z,31.27
2022-12-18T03:29:00.580Z,31.10
2022-12-18T03:31:30.309Z,31.63
2022-12-18T03:34:00.004Z,29.90
2022-12-18T03:36:27.665Z,32.00
2022-12-18T03:38:54.382Z,30.93
2022-12-18T03:41:42.238Z,30.47
2022-12-18T03:44:39.873Z,30.93
2022-12-18T03:47:14.493Z,30.97
2022-12-18T03:50:08.322Z,30.60
2022-12-18T03:52:43.645Z,29.87
2022-12-18T03:55:11.818Z,32.10
2022-12-18T03:57:39.981Z,31.40
2022-12-18T04:00:16.273Z,29.87
2022-12-18T04:02:49.800Z,29.73
2022-12-18T04:05:17.858Z,30.07
2022-12-18T04:07:46.853Z,31.17
2022-12-18T04:10:15.049Z,28.90
2022-12-18T04:12:41.827Z,32.73
2022-12-18T04:15:09.728Z,31.87
2022-12-18T04:17:36.430Z,30.40
2022-12-18T04:20:03.616Z,31.80
2022-12-18T04:22:30.302Z,31.07
2022-12-18T04:24:56.946Z,31.87
2022-12-18T04:27:23.612Z,31.20
2022-12-18T04:29:50.304Z,29.67
2022-12-18T04:32:16.968Z,30.97
2022-12-18T04:34:43.665Z,30.60
2022-12-18T04:37:10.320Z,30.40
2022-12-18T04:39:36.989Z,30.17
2022-12-18T04:42:03.765Z,28.53
2022-12-18T04:44:30.425Z,29.27
2022-12-18T04:46:57.118Z,28.83
2022-12-18T04:49:23.831Z,30.00
2022-12-18T04:51:50.543Z,29.67
2022-12-18T04:54:20.272Z,29.30
2022-12-18T04:56:47.030Z,28.97
2022-12-18T04:59:14.141Z,29.03
2022-12-18T05:01:41.003Z,26.47
2022-12-18T05:04:07.891Z,26.33
2022-12-18T05:06:34.818Z,28.83
2022-12-18T05:09:01.506Z,27.73
2022-12-18T05:11:28.254Z,28.90
2022-12-18T05:13:57.864Z,28.73
2022-12-18T05:16:24.772Z,27.70
2022-12-18T05:18:51.470Z,26.77
2022-12-18T05:21:18.268Z,28.60
2022-12-18T05:23:44.942Z,26.03
2022-12-18T05:26:16.634Z,28.20
2022-12-18T05:28:45.978Z,26.80
2022-12-18T05:31:13.014Z,25.70
2022-12-18T05:33:40.167Z,25.30
2022-12-18T05:36:08.895Z,24.10
2022-12-18T05:38:37.911Z,27.97
2022-12-18T05:41:06.236Z,25.63
2022-12-18T05:43:35.568Z,25.63
2022-12-18T05:46:12.176Z,25.83
2022-12-18T05:48:38.863Z,25.17
2022-12-18T05:51:08.185Z,25.47
2022-12-18T05:53:35.724Z,26.50
2022-12-18T05:56:07.838Z,25.67
2022-12-18T05:58:35.384Z,25.63
2022-12-18T06:01:17.756Z,25.67
2022-12-18T06:03:47.913Z,25.17
2022-12-18T06:06:20.138Z,26.67
2022-12-18T06:08:47.479Z,24.37
2022-12-18T06:11:17.388Z,25.97
2022-12-18T06:13:44.127Z,25.03
2022-12-18T06:16:14.154Z,25.43
2022-12-18T06:18:41.042Z,25.00
2022-12-18T06:21:07.909Z,25.70
2022-12-18T06:23:34.847Z,25.80
2022-12-18T06:26:10.481Z,24.87
2022-12-18T06:28:37.157Z,23.23
2022-12-18T06:31:05.453Z,25.50
2022-12-18T06:33:33.194Z,25.97
2022-12-18T06:36:05.437Z,25.90
2022-12-18T06:38:33.846Z,26.07
2022-12-18T06:41:00.690Z,25.43
2022-12-18T06:43:27.415Z,25.97
2022-12-18T06:46:02.133Z,25.90
2022-12-18T06:48:28.936Z,25.40
2022-12-18T06:50:55.752Z,24.33
2022-12-18T06:53:22.520Z,24.20
2022-12-18T06:55:49.232Z,25.37
2022-12-18T06:58:15.977Z,25.93
2022-12-18T07:00:42.811Z,25.40
2022-12-18T07:03:10.500Z,24.73
2022-12-18T07:05:41.807Z,25.13
2022-12-18T07:08:08.537Z,25.27
2022-12-18T07:10:46.822Z,24.40
2022-12-18T07:13:15.027Z,24.70
2022-12-18T07:15:42.332Z,23.70
2022-12-18T07:18:09.876Z,24.60
2022-12-18T07:20:36.783Z,23.13
2022-12-18T07:23:04.780Z,21.70
2022-12-18T07:25:34.323Z,24.93
2022-12-18T07:28:01.250Z,23.53
2022-12-18T07:30:28.313Z,23.93
2022-12-18T07:32:54.982Z,23.93
2022-12-18T07:35:24.925Z,23.57
2022-12-18T07:37:52.084Z,22.83
2022-12-18T07:40:18.820Z,22.93
2022-12-18T07:42:45.566Z,23.33
2022-12-18T07:45:12.297Z,21.40
2022-12-18T07:47:38.994Z,23.27
2022-12-18T07:50:06.300Z,21.47
2022-12-18T07:52:32.969Z,22.80
2022-12-18T07:55:00.091Z,21.97
2022-12-18T07:57:49.388Z,22.80
2022-12-18T08:00:14.087Z,22.93
2022-12-18T08:02:40.904Z,22.07
2022-12-18T08:05:09.370Z,23.33
2022-12-18T08:07:36.027Z,22.50
2022-12-18T08:10:02.766Z,23.57
2022-12-18T08:12:30.733Z,22.87
2022-12-18T08:14:57.423Z,22.23
2022-12-18T08:17:24.366Z,23.50
2022-12-18T08:19:51.039Z,21.67
2022-12-18T08:22:17.685Z,24.37
2022-12-18T08:24:44.453Z,22.63
2022-12-18T08:27:28.809Z,23.00
2022-12-18T08:29:56.641Z,21.70
2022-12-18T08:32:23.608Z,21.80
2022-12-18T08:34:50.324Z,21.50
2022-12-18T08:37:16.994Z,22.20
2022-12-18T08:39:43.743Z,22.67
2022-12-18T08:42:29.487Z,21.53
2022-12-18T08:44:56.211Z,21.97
2022-12-18T08:47:22.911Z,22.30
2022-12-18T08:49:49.576Z,23.23
2022-12-18T08:52:16.253Z,22.00
2022-12-18T08:54:42.916Z,19.37
2022-12-18T08:57:09.767Z,20.57
2022-12-18T08:59:36.450Z,21.47
2022-12-18T09:02:03.316Z,19.80
2022-12-18T09:04:30.137Z,21.27
2022-12-18T09:06:57.059Z,19.00
2022-12-18T09:09:23.753Z,19.60
2022-12-18T09:11:50.421Z,20.73
2022-12-18T09:14:17.136Z,17.80
2022-12-18T09:16:44.044Z,18.00
2022-12-18T09:19:11.231Z,19.67
2022-12-18T09:21:40.226Z,18.80
2022-12-18T09:24:15.894Z,19.43
2022-12-18T09:26:43.362Z,19.53
2022-12-18T09:29:13.559Z,16.40
2022-12-18T09:31:47.773Z,19.70
2022-12-18T09:34:14.614Z,18.77
2022-12-18T09:36:41.261Z,17.00
2022-12-18T09:39:08.978Z,17.13
2022-12-18T09:41:51.123Z,17.03
2022-12-18T09:44:19.293Z,15.83
2022-12-18T09:46:52.562Z,17.80
2022-12-18T09:49:24.502Z,17.30
2022-12-18T09:52:17.381Z,16.30
2022-12-18T09:54:54.375Z,17.57
2022-12-18T09:57:24.009Z,16.07
2022-12-18T10:00:02.940Z,16.50
2022-12-18T10:02:32.501Z,15.23
2022-12-18T10:05:09.905Z,15.70
2022-12-18T10:07:50.297Z,15.23
2022-12-18T10:10:25.616Z,15.03
2022-12-18T10:13:04.315Z,14.87
2022-12-18T10:15:31.587Z,13.73
2022-12-18T10:18:22.210Z,13.70
2022-12-18T10:21:00.943Z,13.90
2022-12-18T10:24:17.916Z,14.50
2022-12-18T10:26:45.882Z,13.90
2022-12-18T10:29:14.426Z,13.07
2022-12-18T10:31:41.348Z,13.23
2022-12-18T10:34:14.306Z,13.20
2022-12-18T10:36:43.216Z,13.57
2022-12-18T10:39:20.548Z,12.60
2022-12-18T10:41:47.304Z,13.10
2022-12-18T10:44:21.786Z,12.93
2022-12-18T10:46:52.048Z,12.47
2022-12-18T10:49:43.136Z,13.27
2022-12-18T10:52:16.461Z,11.97
2022-12-18T10:55:05.072Z,13.07
2022-12-18T10:57:38.366Z,12.23
2022-12-18T11:00:29.707Z,11.13
2022-12-18T11:02:57.779Z,10.97
2022-12-18T11:05:33.911Z,11.70
2022-12-18T11:08:01.774Z,11.87
2022-12-18T11:10:34.004Z,12.10
2022-12-18T11:13:33.619Z,12.07
2022-12-18T11:16:00.946Z,11.13
2022-12-18T11:18:31.444Z,11.93
2022-12-18T11:21:10.417Z,10.87
2022-12-18T11:23:44.902Z,11.30
2022-12-18T11:26:11.638Z,11.20
2022-12-18T11:28:40.484Z,11.67
2022-12-18T11:31:19.428Z,11.30
2022-12-18T11:37:00.708Z,11.47
2022-12-18T11:39:38.301Z,12.00
2022-12-18T11:42:25.466Z,11.23
2022-12-18T11:45:15.230Z,11.17
2022-12-18T11:47:55.197Z,11.70
2022-12-18T11:50:45.738Z,10.30
2022-12-18T11:53:13.407Z,11.40
2022-12-18T11:55:49.005Z,10.67
2022-12-18T11:58:31.666Z,10.73
2022-12-18T12:01:31.209Z,10.60
2022-12-18T12:04:23.747Z,11.60
2022-12-18T12:07:06.202Z,11.43
2022-12-18T12:10:00.467Z,10.33
2022-12-18T12:12:49.449Z,10.53
2022-12-18T12:15:54.309Z,11.77
2022-12-18T12:18:38.594Z,9.90
2022-12-18T12:21:23.878Z,9.97
2022-12-18T12:24:10.226Z,10.77
2022-12-18T12:26:42.637Z,11.87
2022-12-18T12:29:30.334Z,10.73
2022-12-18T12:31:57.032Z,11.23
2022-12-18T12:34:35.466Z,10.83
2022-12-18T12:37:23.570Z,10.23
2022-12-18T12:39:52.898Z,10.87
2022-12-18T12:43:03.686Z,10.07
2022-12-18T12:45:51.987Z,9.80
2022-12-18T12:48:34.127Z,10.57
2022-12-18T12:51:07.907Z,11.03
2022-12-18T12:53:38.182Z,10.13
2022-12-18T12:56:09.476Z,10.07
2022-12-18T12:59:11.427Z,11.07
2022-12-18T13:02:03.128Z,9.73
2022-12-18T13:04:32.939Z,10.17
2022-12-18T13:07:07.139Z,10.67
2022-12-18T13:09:36.887Z,10.03
2022-12-18T13:12:30.311Z,11.57
2022-12-18T13:15:23.490Z,10.90
2022-12-18T13:17:54.268Z,10.47
2022-12-18T13:20:21.043Z,10.70
2022-12-18T13:22:50.058Z,11.00
2022-12-18T13:25:35.669Z,10.80
2022-12-18T13:28:09.916Z,10.53
2022-12-18T13:30:36.546Z,10.73
2022-12-18T13:33:15.628Z,9.97
2022-12-18T13:36:01.176Z,11.53
2022-12-18T13:38:39.297Z,11.07
2022-12-18T13:41:08.679Z,10.63
2022-12-18T13:43:42.861Z,10.57
2022-12-18T13:46:30.312Z,10.40
2022-12-18T13:49:01.209Z,10.27
2022-12-18T13:51:29.712Z,10.83
2022-12-18T13:54:14.638Z,10.73
2022-12-18T13:56:45.840Z,10.70
2022-12-18T13:59:14.876Z,11.30
2022-12-18T14:01:46.705Z,11.53
2022-12-18T14:04:20.751Z,11.63
2022-12-18T14:06:50.126Z,11.00
2022-12-18T14:09:26.267Z,11.10
2022-12-18T14:12:15.337Z,11.17
2022-12-18T14:14:49.213Z,11.00
2022-12-18T14:17:18.650Z,12.03
2022-12-18T14:19:51.028Z,11.07
2022-12-18T14:22:28.716Z,11.63
2022-12-18T14:25:13.861Z,10.97
2022-12-18T14:27:52.241Z,10.60
2022-12-18T14:30:25.199Z,10.63
2022-12-18T14:33:01.639Z,11.17
2022-12-18T14:35:28.515Z,10.37
2022-12-18T14:38:09.043Z,10.70
2022-12-18T14:40:35.851Z,10.93
2022-12-18T14:43:03.959Z,10.47
2022-12-18T14:45:42.391Z,11.37
2022-12-18T14:48:34.597Z,10.47
2022-12-18T14:51:18.646Z,12.13
2022-12-18T14:54:01.327Z,12.10
2022-12-18T14:56:34.561Z,11.23
2022-12-18T14:59:07.566Z,10.97
2022-12-18T15:02:02.346Z,11.60
2022-12-18T15:04:40.033Z,11.07
2022-12-18T15:07:24.101Z,11.47
2022-12-18T15:10:09.306Z,11.80
2022-12-18T15:12:48.309Z,11.67
2022-12-18T15:15:34.040Z,11.53
2022-12-18T15:18:09.824Z,11.07
2022-12-18T15:20:49.078Z,11.27
2022-12-18T15:23:26.242Z,12.00
2022-12-18T15:26:10.082Z,11.87
2022-12-18T15:28:57.119Z,12.73
2022-12-18T15:31:29.620Z,12.33
2022-12-18T15:33:56.287Z,12.23
2022-12-18T15:36:26.275Z,12.00
2022-12-18T15:38:56.036Z,11.60
2022-12-18T15:41:35.228Z,10.57
2022-12-18T15:44:03.845Z,11.97
2022-12-18T15:46:31.797Z,11.27
2022-12-18T15:49:02.333Z,13.55
2022-12-18T15:51:32.551Z,11.80
2022-12-18T15:54:01.519Z,13.37
2022-12-18T15:56:46.900Z,12.47
2022-12-18T15:59:15.932Z,13.40
2022-12-18T16:01:44.533Z,12.53
2022-12-18T16:04:13.949Z,12.47
2022-12-18T16:07:12.788Z,12.20
2022-12-18T16:09:27.838Z,12.07
2022-12-18T16:11:54.520Z,12.17
2022-12-18T16:14:30.315Z,12.27
2022-12-18T16:17:02.873Z,12.17
2022-12-18T16:19:30.985Z,12.67
2022-12-18T16:21:59.230Z,14.00
2022-12-18T16:24:28.999Z,12.47
2022-12-18T16:27:00.592Z,14.37
2022-12-18T16:29:29.351Z,13.90
2022-12-18T16:32:01.044Z,13.57
2022-12-18T16:34:35.385Z,13.90
2022-12-18T16:37:07.443Z,14.57
2022-12-18T16:39:37.902Z,13.50
2022-12-18T16:42:15.425Z,14.20
2022-12-18T16:44:43.312Z,14.10
2022-12-18T16:47:10.350Z,14.60
2022-12-18T16:49:40.021Z,14.07
2022-12-18T16:52:08.096Z,14.03
2022-12-18T16:54:36.599Z,15.73
2022-12-18T16:57:05.398Z,14.13
2022-12-18T16:59:32.498Z,13.70
2022-12-18T17:01:59.256Z,15.40
2022-12-18T17:04:26.057Z,15.67
2022-12-18T17:06:53.889Z,14.77
2022-12-18T17:09:25.446Z,14.50
2022-12-18T17:11:53.450Z,14.30
2022-12-18T17:14:22.370Z,15.27
2022-12-18T17:17:07.298Z,15.57
2022-12-18T17:19:36.047Z,15.70
2022-12-18T17:22:02.748Z,15.50
2022-12-18T17:24:34.503Z,17.67
2022-12-18T17:27:02.281Z,16.17
2022-12-18T17:29:29.050Z,17.83
2022-12-18T17:31:55.699Z,15.33
2022-12-18T17:34:24.366Z,16.93
2022-12-18T17:36:51.024Z,18.33
2022-12-18T17:39:20.283Z,17.90
2022-12-18T17:41:47.699Z,18.23
2022-12-18T17:44:14.570Z,16.73
2022-12-18T17:46:41.420Z,18.40
2022-12-18T17:49:08.289Z,17.93
2022-12-18T17:51:35.218Z,18.83
2022-12-18T17:54:01.994Z,18.30
2022-12-18T17:56:28.728Z,17.53
2022-12-18T17:58:55.546Z,18.87
2022-12-18T18:01:24.951Z,18.03
2022-12-18T18:03:53.747Z,18.30
2022-12-18T18:06:20.782Z,18.83
2022-12-18T18:08:48.032Z,17.97
2022-12-18T18:11:36.386Z,18.93
2022-12-18T18:14:05.853Z,16.13
2022-12-18T18:16:40.826Z,18.60
2022-12-18T18:19:27.182Z,17.83
2022-12-18T18:21:54.647Z,18.97
2022-12-18T18:24:23.783Z,19.53
2022-12-18T18:26:50.824Z,20.87
2022-12-18T18:29:20.531Z,19.13
2022-12-18T18:31:48.010Z,19.30
2022-12-18T18:34:20.692Z,20.50
2022-12-18T18:36:47.442Z,19.27
2022-12-18T18:39:14.969Z,20.10
2022-12-18T18:41:45.073Z,19.60
2022-12-18T18:44:16.273Z,19.13
2022-12-18T18:46:43.144Z,19.63
2022-12-18T18:49:09.876Z,19.87
2022-12-18T18:51:36.597Z,20.20
2022-12-18T18:54:03.353Z,19.90
2022-12-18T18:59:18.342Z,19.13
2022-12-18T19:01:45.284Z,21.27
2022-12-18T19:04:12.489Z,21.53
2022-12-18T19:06:39.692Z,20.60
2022-12-18T19:09:07.414Z,18.10
2022-12-18T19:11:53.141Z,20.73
2022-12-18T19:14:20.294Z,19.20
2022-12-18T19:16:47.122Z,19.23
2022-12-18T19:19:14.613Z,20.03
2022-12-18T19:21:41.370Z,21.33
2022-12-18T19:24:09.535Z,20.57
2022-12-18T19:26:37.575Z,20.10
2022-12-18T19:29:06.649Z,21.40
2022-12-18T19:31:36.403Z,19.77
2022-12-18T19:34:05.322Z,20.77
2022-12-18T19:36:33.175Z,21.33
2022-12-18T19:39:07.970Z,20.80
2022-12-18T19:41:34.733Z,21.33
2022-12-18T19:44:07.734Z,21.03
2022-12-18T19:46:36.058Z,21.10
2022-12-18T19:49:04.256Z,21.03
2022-12-18T19:51:31.675Z,21.73
2022-12-18T19:54:01.444Z,20.90
2022-12-18T19:56:31.637Z,21.67
2022-12-18T19:58:58.972Z,21.73
2022-12-18T20:01:27.352Z,22.47
2022-12-18T20:03:55.888Z,22.40
2022-12-18T20:06:29.411Z,21.33
2022-12-18T20:09:00.190Z,21.13
2022-12-18T20:11:31.347Z,21.90
2022-12-18T20:14:01.555Z,21.73
2022-12-18T20:16:29.013Z,21.67
2022-12-18T20:18:56.722Z,23.27
2022-12-18T20:21:23.622Z,22.47
2022-12-18T20:23:50.640Z,21.50
2022-12-18T20:26:17.322Z,21.43
2022-12-18T20:28:44.346Z,20.97
2022-12-18T20:31:13.770Z,21.87
2022-12-18T20:33:42.461Z,22.63
2022-12-18T20:36:14.424Z,23.13
2022-12-18T20:38:42.978Z,23.10
2022-12-18T20:41:13.645Z,21.23
2022-12-18T20:43:40.738Z,21.87
2022-12-18T20:46:10.482Z,22.80
2022-12-18T20:48:40.918Z,22.70
2022-12-18T20:51:11.678Z,21.80
2022-12-18T20:53:41.801Z,20.87
2022-12-18T20:56:21.222Z,21.73
2022-12-18T20:58:50.093Z,23.87
2022-12-18T21:01:20.122Z,23.63
2022-12-18T21:03:48.075Z,22.70
2022-12-18T21:06:17.070Z,23.90
2022-12-18T21:08:44.206Z,23.73
2022-12-18T21:11:36.365Z,25.20
2022-12-18T21:14:04.337Z,23.37
2022-12-18T21:16:31.491Z,25.00
2022-12-18T21:18:58.820Z,24.07
2022-12-18T21:21:26.878Z,25.17
2022-12-18T21:23:54.091Z,24.80
2022-12-18T21:26:26.482Z,24.70
2022-12-18T21:28:58.953Z,25.30
2022-12-18T21:31:30.187Z,24.40
2022-12-18T21:34:02.043Z,24.47
2022-12-18T21:36:30.242Z,26.73
2022-12-18T21:38:58.430Z,24.87
2022-12-18T21:41:44.670Z,25.43
2022-12-18T21:44:16.462Z,26.77
2022-12-18T21:46:54.851Z,27.57
2022-12-18T21:49:24.761Z,25.53
2022-12-18T21:51:56.787Z,25.03
2022-12-18T21:54:24.820Z,26.10
2022-12-18T21:56:56.923Z,28.13
2022-12-18T21:59:46.133Z,29.77
2022-12-18T22:02:16.780Z,27.40
2022-12-18T22:04:44.364Z,27.53
2022-12-18T22:07:11.891Z,26.97
2022-12-18T22:09:38.624Z,29.33
2022-12-18T22:12:05.978Z,28.23
2022-12-18T22:14:32.907Z,27.93
2022-12-18T22:16:59.599Z,26.03
2022-12-18T22:19:26.651Z,28.67
2022-12-18T22:21:54.564Z,27.77
2022-12-18T22:24:24.125Z,27.63
2022-12-18T22:26:53.056Z,29.27
2022-12-18T22:29:45.364Z,28.50
2022-12-18T22:32:16.351Z,29.43
2022-12-18T22:34:43.671Z,27.73
2022-12-18T22:37:12.227Z,28.93
2022-12-18T22:39:39.195Z,29.50
2022-12-18T22:42:06.340Z,29.77
2022-12-18T22:44:33.242Z,29.23
2022-12-18T22:47:06.380Z,28.63
2022-12-18T22:49:35.194Z,30.33
2022-12-18T22:52:06.408Z,29.80
2022-12-18T22:54:33.073Z,29.13
2022-12-18T22:56:59.759Z,30.33
2022-12-18T22:59:26.419Z,29.03
2022-12-18T23:01:54.257Z,30.97
2022-12-18T23:04:35.158Z,29.47
2022-12-18T23:07:04.989Z,29.53
2022-12-18T23:09:32.171Z,31.17
2022-12-18T23:11:59.054Z,30.27
2022-12-18T23:14:25.820Z,30.90
2022-12-18T23:16:53.236Z,32.10
2022-12-18T23:19:20.753Z,30.03
2022-12-18T23:21:47.783Z,31.03
2022-12-18T23:24:15.108Z,33.00
2022-12-18T23:26:42.940Z,31.30
2022-12-18T23:29:09.659Z,29.20
2022-12-18T23:31:38.709Z,30.83
2022-12-18T23:34:06.808Z,30.93
2022-12-18T23:36:45.984Z,27.40
2022-12-18T23:39:17.214Z,28.33
2022-12-18T23:41:56.326Z,29.77
2022-12-18T23:44:23.111Z,28.93
2022-12-18T23:46:49.809Z,31.97
2022-12-18T23:49:16.536Z,30.80
2022-12-18T23:51:43.412Z,30.33
2022-12-18T23:54:10.637Z,29.23
2022-12-18T23:56:37.422Z,29.53
2022-12-18T23:59:04.195Z,28.50
